createdAt,value
2022-11-27T00:28:21.798Z,4.52
2022-11-27T00:58:26.918Z,4.52
2022-11-27T01:28:31.128Z,4.23
2022-11-27T01:58:35.825Z,4.27
2022-11-27T02:28:58.623Z,4.35
2022-11-27T02:59:04.841Z,4.22
2022-11-27T03:29:12.450Z,4.36
2022-11-27T03:59:20.248Z,4.61
2022-11-27T04:29:24.343Z,4.71
2022-11-27T04:59:28.427Z,5.09
2022-11-27T05:29:32.518Z,5.04
2022-11-27T05:59:36.715Z,4.72
2022-11-27T06:29:40.943Z,4.63
2022-11-27T06:59:44.999Z,4.79
2022-11-27T07:29:49.099Z,4.85
2022-11-27T07:59:53.192Z,4.95
2022-11-27T08:29:57.313Z,5.39
2022-11-27T09:00:01.409Z,6.19
2022-11-27T09:30:07.565Z,6.66
2022-11-27T10:00:15.908Z,6.49
2022-11-27T10:30:22.062Z,7.29
2022-11-27T11:00:27.874Z,9.00
2022-11-27T11:30:33.374Z,12.00
2022-11-27T12:01:04.694Z,10.55
2022-11-27T12:31:09.615Z,9.00
2022-11-27T13:01:16.957Z,8.49
2022-11-27T13:31:23.219Z,7.94
2022-11-27T14:01:27.567Z,6.99
2022-11-27T14:31:35.370Z,6.47
2022-11-27T15:01:41.394Z,6.31
2022-11-27T15:31:52.345Z,6.31
2022-11-27T16:01:57.810Z,6.26
2022-11-27T16:32:02.395Z,6.29
2022-11-27T17:02:06.959Z,6.09
2022-11-27T17:32:12.965Z,5.97
2022-11-27T18:02:17.915Z,5.91
2022-11-27T18:32:22.884Z,5.89
2022-11-27T19:02:27.194Z,6.02
2022-11-27T19:32:31.358Z,6.36
2022-11-27T20:02:37.131Z,6.30
2022-11-27T20:32:41.475Z,6.09
2022-11-27T21:02:45.675Z,6.15
2022-11-27T21:32:50.089Z,6.14
2022-11-27T22:02:54.456Z,6.05
2022-11-27T22:32:58.618Z,5.92
2022-11-27T23:03:03.031Z,5.70
2022-11-27T23:33:07.211Z,5.32
